Time;durP1;ratioP1;P1;durP2;ratioP2;P2;SDS_P1;SDS_P2;PMS_P1;PMS_P2;Temp;Humidity;BMP_temperature;BMP_pressure;BME280_temperature;BME280_humidity;BME280_pressure;Samples;Min_cycle;Max_cycle;Signal;HPM_P1;HPM_P2
2022/11/11 00:01:58;;;;;;;3.43;1.50;;;;;;;7.45;96.04;96915.19;4973642;28;20211;-84
2022/11/11 00:04:23;;;;;;;6.73;1.87;;;;;;;7.52;95.58;96913.91;4974842;28;20192;-83
2022/11/11 00:06:48;;;;;;;4.37;1.63;;;;;;;7.48;95.33;96913.22;4969124;28;20193;-84
2022/11/11 00:09:13;;;;;;;4.77;1.70;;;;;;;7.49;95.43;96909.72;4985134;28;20197;-83
2022/11/11 00:11:39;;;;;;;6.93;1.60;;;;;;;7.46;94.91;96907.34;4974034;28;20212;-83
2022/11/11 00:14:07;;;;;;;7.03;1.53;;;;;;;7.44;95.59;96903.19;4982078;28;20252;-83
2022/11/11 00:25:04;;;;;;;3.20;1.40;;;;;;;7.37;95.58;96902.75;4978844;28;20189;-82
2022/11/11 00:27:29;;;;;;;3.97;2.93;;;;;;;7.42;95.20;96903.28;4969577;28;20411;-83
2022/11/11 00:29:55;;;;;;;4.83;2.27;;;;;;;7.40;95.03;96905.13;4983582;28;20193;-83
2022/11/11 00:32:23;;;;;;;4.83;2.13;;;;;;;7.36;95.23;96903.66;4958354;28;20759;-83
2022/11/11 00:37:33;;;;;;;3.30;2.60;;;;;;;7.21;95.94;96912.34;4964411;28;20439;-84
2022/11/11 00:39:59;;;;;;;5.03;2.60;;;;;;;7.27;95.84;96914.56;4969194;28;20256;-83
2022/11/11 00:42:24;;;;;;;3.40;2.67;;;;;;;7.27;95.20;96912.81;4980723;28;20205;-82
2022/11/11 00:44:50;;;;;;;2.37;2.17;;;;;;;7.20;95.25;96915.88;4965503;28;20200;-83
2022/11/11 00:52:46;;;;;;;3.80;2.00;;;;;;;7.18;94.80;96920.31;4969041;28;20218;-83
2022/11/11 00:55:12;;;;;;;4.77;4.37;;;;;;;7.16;94.41;96925.56;4973658;28;20196;-83
2022/11/11 00:57:37;;;;;;;4.87;3.83;;;;;;;7.13;95.25;96917.97;4963284;28;20265;-84
2022/11/11 01:00:03;;;;;;;5.10;3.80;;;;;;;7.09;95.08;96912.19;4967455;28;20189;-83
2022/11/11 01:02:29;;;;;;;3.87;3.20;;;;;;;7.12;95.33;96921.50;4987116;28;20696;-82
2022/11/11 01:04:54;;;;;;;3.50;3.00;;;;;;;7.14;95.01;96919.63;4963186;28;20544;-84
2022/11/11 01:07:19;;;;;;;2.23;2.03;;;;;;;7.09;94.85;96925.09;4958845;28;20181;-82
2022/11/11 01:09:44;;;;;;;5.93;1.90;;;;;;;7.10;94.78;96928.50;4970481;28;20188;-82
2022/11/11 01:12:10;;;;;;;2.37;1.40;;;;;;;7.13;94.46;96938.66;4981126;28;20700;-83
2022/11/11 01:14:35;;;;;;;2.80;1.80;;;;;;;7.12;94.43;96931.00;4972033;28;20279;-84
2022/11/11 01:17:00;;;;;;;3.07;1.60;;;;;;;7.14;93.97;96934.31;4978572;28;20196;-84
2022/11/11 01:19:26;;;;;;;2.63;1.23;;;;;;;7.17;93.62;96940.13;4951386;28;20197;-84
2022/11/11 01:21:51;;;;;;;2.97;1.43;;;;;;;7.09;93.38;96935.44;4958930;28;20217;-82
2022/11/11 01:24:16;;;;;;;3.77;2.23;;;;;;;7.05;93.75;96933.94;4968805;28;20252;-83
2022/11/11 01:26:41;;;;;;;2.77;1.50;;;;;;;6.97;93.68;96938.72;4982389;28;20189;-83
2022/11/11 01:29:07;;;;;;;2.07;1.40;;;;;;;6.95;93.95;96927.66;4964836;28;20192;-82
2022/11/11 01:31:32;;;;;;;2.10;1.50;;;;;;;6.98;94.06;96931.81;4968449;28;20247;-83
2022/11/11 01:33:57;;;;;;;5.67;1.50;;;;;;;7.00;94.11;96928.25;4982292;28;20216;-83
2022/11/11 01:36:25;;;;;;;2.37;1.30;;;;;;;7.03;93.69;96929.78;4979332;28;20192;-83
2022/11/11 01:38:55;;;;;;;2.17;1.30;;;;;;;7.03;93.52;96927.22;4985331;28;20213;-83
2022/11/11 01:41:33;;;;;;;4.10;1.30;;;;;;;7.04;93.64;96934.03;4944773;28;20295;-82
2022/11/11 01:44:10;;;;;;;1.33;1.13;;;;;;;6.97;93.61;96933.56;4956843;28;20188;-83
2022/11/11 01:47:05;;;;;;;8.47;1.50;;;;;;;7.03;93.78;96928.03;4962475;28;20616;-82
2022/11/11 01:49:35;;;;;;;2.20;1.27;;;;;;;7.03;93.75;96928.03;4945391;28;20208;-83
2022/11/11 01:52:12;;;;;;;1.97;1.43;;;;;;;7.06;93.80;96927.00;4946135;28;20215;-82
2022/11/11 01:54:43;;;;;;;4.53;1.27;;;;;;;7.13;93.76;96917.97;4953079;28;20200;-83
2022/11/11 01:57:34;;;;;;;3.50;2.07;;;;;;;7.18;93.15;96913.38;4952975;28;20330;-83
2022/11/11 02:00:03;;;;;;;6.37;1.30;;;;;;;7.26;92.90;96918.91;4969896;28;20200;-82
2022/11/11 02:02:37;;;;;;;2.47;1.47;;;;;;;7.28;92.57;96923.97;4945705;28;20212;-84
2022/11/11 02:07:48;;;;;;;2.33;1.60;;;;;;;7.26;92.74;96923.25;4953364;28;20203;-84
2022/11/11 02:10:14;;;;;;;1.77;1.40;;;;;;;7.34;92.29;96921.84;4966076;28;20602;-82
2022/11/11 02:15:23;;;;;;;4.60;1.33;;;;;;;7.37;92.01;96931.16;4945011;28;20631;-82
2022/11/11 02:17:49;;;;;;;2.60;1.17;;;;;;;7.37;91.72;96931.16;4946338;28;20212;-85
2022/11/11 02:20:18;;;;;;;3.77;1.60;;;;;;;7.34;91.88;96923.63;4938761;28;20200;-82
2022/11/11 02:22:48;;;;;;;2.37;1.30;;;;;;;7.33;91.80;96933.13;4952850;28;20191;-83
2022/11/11 02:25:17;;;;;;;1.57;1.20;;;;;;;7.37;91.88;96933.75;4953185;28;20239;-83
2022/11/11 02:27:48;;;;;;;3.80;1.40;;;;;;;7.33;92.41;96933.13;4951174;28;20222;-83
2022/11/11 02:30:15;;;;;;;3.60;1.10;;;;;;;7.33;92.16;96932.25;4980824;28;20192;-83
2022/11/11 02:32:47;;;;;;;4.10;1.40;;;;;;;7.34;91.72;96941.69;4971234;28;20434;-83
2022/11/11 02:35:18;;;;;;;2.27;1.60;;;;;;;7.25;91.63;96931.94;4961699;28;20203;-83
2022/11/11 02:37:45;;;;;;;2.97;1.40;;;;;;;7.17;91.87;96937.56;4966532;28;20617;-83
2022/11/11 02:40:16;;;;;;;1.67;1.30;;;;;;;7.08;92.34;96933.78;4967352;28;20188;-82
2022/11/11 02:42:42;;;;;;;2.33;1.60;;;;;;;7.03;92.87;96927.22;4965827;28;20605;-83
2022/11/11 02:45:07;;;;;;;3.63;1.33;;;;;;;6.97;92.87;96933.56;4981438;28;20193;-82
2022/11/11 02:47:32;;;;;;;4.97;1.50;;;;;;;6.91;93.11;96923.63;4970444;28;20196;-83
2022/11/11 02:49:58;;;;;;;2.40;1.27;;;;;;;6.89;93.86;96927.19;4965717;28;20197;-84
2022/11/11 02:52:23;;;;;;;2.20;1.23;;;;;;;6.86;93.57;96925.63;4983347;28;20212;-82
2022/11/11 02:54:49;;;;;;;4.10;1.60;;;;;;;6.88;93.04;96923.78;4972455;28;20224;-82
2022/11/11 02:57:15;;;;;;;3.33;1.23;;;;;;;6.88;92.65;96913.44;4959851;28;20192;-84
2022/11/11 02:59:40;;;;;;;3.60;1.40;;;;;;;6.88;92.25;96917.78;4983336;28;20193;-83
2022/11/11 03:02:06;;;;;;;2.67;1.30;;;;;;;6.95;91.73;96909.59;4973881;28;20208;-82
2022/11/11 03:04:32;;;;;;;3.47;1.10;;;;;;;7.00;91.34;96919.66;4973839;28;20456;-85
2022/11/11 03:06:58;;;;;;;3.77;1.47;;;;;;;7.00;90.77;96915.31;4987528;28;20208;-84
2022/11/11 03:09:23;;;;;;;3.03;0.97;;;;;;;6.97;90.30;96912.91;4990896;28;20168;-84
2022/11/11 03:11:49;;;;;;;3.33;1.20;;;;;;;6.97;90.25;96915.47;4984387;28;20220;-85
2022/11/11 03:14:14;;;;;;;4.50;1.10;;;;;;;6.96;90.19;96915.59;5001828;28;20291;-85
2022/11/11 03:19:23;;;;;;;2.27;0.93;;;;;;;6.86;90.45;96904.97;4990609;28;20269;-85
2022/11/11 03:21:48;;;;;;;4.63;1.30;;;;;;;6.82;90.92;96908.69;4982702;28;20693;-84
2022/11/11 03:24:14;;;;;;;2.93;1.10;;;;;;;6.80;91.11;96906.19;4981724;28;20196;-83
2022/11/11 03:26:39;;;;;;;2.37;1.10;;;;;;;6.84;90.51;96908.59;4975040;28;20192;-84
2022/11/11 03:29:04;;;;;;;3.33;1.20;;;;;;;6.83;90.81;96905.16;4987587;28;20196;-83
2022/11/11 03:31:30;;;;;;;1.73;1.17;;;;;;;6.80;91.44;96906.19;4964776;28;20573;-84
2022/11/11 03:34:16;;;;;;;2.17;1.30;;;;;;;6.85;91.12;96902.50;4969425;28;20307;-84
2022/11/11 03:39:24;;;;;;;3.00;1.00;;;;;;;6.81;91.42;96907.03;4973311;28;20196;-82
2022/11/11 03:41:50;;;;;;;2.07;1.20;;;;;;;6.83;92.37;96910.34;4984348;28;20204;-83
2022/11/11 03:44:15;;;;;;;2.87;1.40;;;;;;;6.82;91.94;96912.09;4971158;28;20665;-82
2022/11/11 03:46:40;;;;;;;2.37;1.47;;;;;;;6.84;92.21;96917.16;4968743;28;20200;-82
2022/11/11 03:49:05;;;;;;;2.13;1.30;;;;;;;6.88;91.58;96915.22;4962035;28;20235;-82
2022/11/11 03:51:31;;;;;;;3.40;1.20;;;;;;;6.91;91.21;96908.13;4979035;28;20677;-82
2022/11/11 03:53:56;;;;;;;5.93;1.43;;;;;;;6.91;90.89;96921.03;4974691;28;20515;-82
2022/11/11 03:56:21;;;;;;;2.30;1.70;;;;;;;7.02;90.95;96917.81;4969528;28;20192;-82
2022/11/11 03:58:46;;;;;;;2.20;1.10;;;;;;;7.07;90.42;96926.94;4976292;28;20675;-83
2022/11/11 04:10:21;;;;;;;1.43;1.23;;;;;;;7.16;89.70;96927.31;4975834;28;20262;-82
2022/11/11 04:12:09;;;;;;;1.10;1.00;;;;;;;7.29;88.41;96946.31;4967554;28;20216;-84
2022/11/11 04:17:18;;;;;;;2.13;1.20;;;;;;;7.14;88.58;96953.22;4974423;28;20251;-85
2022/11/11 04:22:27;;;;;;;3.67;1.33;;;;;;;7.12;88.96;96949.91;4972514;28;20214;-83
2022/11/11 04:27:37;;;;;;;3.00;1.20;;;;;;;7.01;89.86;96945.38;4979195;28;20569;-82
2022/11/11 04:30:02;;;;;;;2.20;1.20;;;;;;;6.99;89.49;96944.66;4978066;28;20189;-82
2022/11/11 04:32:41;;;;;;;1.67;1.10;;;;;;;6.89;89.20;96940.97;4976792;28;20213;-82
2022/11/11 04:35:09;;;;;;;3.47;1.27;;;;;;;6.83;89.50;96951.66;4964379;28;20192;-83
2022/11/11 04:37:45;;;;;;;3.87;1.20;;;;;;;6.72;89.58;96948.88;4948869;28;20204;-83
2022/11/11 04:42:55;;;;;;;3.87;1.20;;;;;;;6.59;90.71;96960.81;4973468;28;20219;-82
2022/11/11 04:45:26;;;;;;;3.70;1.30;;;;;;;6.57;91.63;96955.75;4958796;28;20201;-84
2022/11/11 04:48:07;;;;;;;2.63;1.10;;;;;;;6.59;91.89;96958.22;4974922;28;20200;-83
2022/11/11 04:50:37;;;;;;;3.10;1.30;;;;;;;6.53;92.07;96969.72;4970712;28;20192;-83
2022/11/11 04:53:04;;;;;;;4.07;1.50;;;;;;;6.53;92.09;96980.06;4965615;28;20714;-84
2022/11/11 04:58:14;;;;;;;3.03;1.30;;;;;;;6.48;91.96;96974.34;4983513;28;20569;-83
2022/11/11 05:00:39;;;;;;;4.80;1.87;;;;;;;6.44;92.61;96976.25;4958460;28;20212;-83
2022/11/11 05:03:14;;;;;;;2.53;1.20;;;;;;;6.44;92.71;96981.41;4972485;28;20268;-85
2022/11/11 05:11:10;;;;;;;1.87;1.60;;;;;;;6.32;92.86;97012.25;4978317;28;20232;-82
2022/11/11 05:21:56;;;;;;;2.87;1.60;;;;;;;6.31;93.17;97021.72;4967263;28;20223;-84
2022/11/11 05:27:05;;;;;;;1.30;1.20;;;;;;;6.36;91.27;97027.47;4973333;28;20219;-84
2022/11/11 05:29:30;;;;;;;1.73;1.10;;;;;;;6.33;91.31;97027.63;4969172;28;20188;-82
2022/11/11 05:31:56;;;;;;;2.07;1.30;;;;;;;6.37;91.01;97026.56;4982879;28;20302;-83
2022/11/11 05:34:21;;;;;;;2.97;1.13;;;;;;;6.32;90.68;97023.41;4965298;28;20209;-81
2022/11/11 05:36:46;;;;;;;1.03;1.00;;;;;;;6.28;90.69;97029.66;4968641;28;20235;-84
2022/11/11 05:39:12;;;;;;;2.10;1.17;;;;;;;6.23;90.59;97034.22;4959261;28;20192;-82
2022/11/11 05:41:37;;;;;;;1.87;1.17;;;;;;;6.18;90.79;97036.22;4970204;28;20220;-81
2022/11/11 05:44:02;;;;;;;2.40;1.70;;;;;;;6.11;90.76;97035.75;4968789;28;20189;-83
2022/11/11 05:46:28;;;;;;;3.00;1.80;;;;;;;6.08;91.30;97035.06;4966352;28;20185;-82
2022/11/11 05:51:37;;;;;;;3.73;1.50;;;;;;;6.00;91.17;97047.53;4963666;28;20218;-82
2022/11/11 05:54:02;;;;;;;2.03;1.60;;;;;;;5.96;91.28;97047.72;4969173;28;20324;-81
2022/11/11 05:56:28;;;;;;;2.00;1.30;;;;;;;5.89;91.45;97055.81;4957771;28;20276;-79
2022/11/11 05:58:53;;;;;;;2.67;1.03;;;;;;;5.88;91.95;97060.16;4971245;28;20212;-78
2022/11/11 06:01:18;;;;;;;2.83;1.30;;;;;;;5.82;92.75;97057.06;4976197;28;20213;-79
2022/11/11 06:03:44;;;;;;;3.73;1.50;;;;;;;5.80;92.48;97057.16;4973577;28;20720;-80
2022/11/11 06:06:10;;;;;;;3.73;2.40;;;;;;;5.73;93.05;97054.97;4960668;28;20376;-80
2022/11/11 06:08:35;;;;;;;4.07;2.33;;;;;;;5.68;93.59;97056.06;4945728;28;20243;-81
2022/11/11 06:11:00;;;;;;;3.13;1.67;;;;;;;5.71;93.17;97054.22;4981743;28;20208;-81
2022/11/11 06:13:25;;;;;;;4.83;1.80;;;;;;;5.68;93.92;97060.38;4960234;28;20228;-81
2022/11/11 06:15:51;;;;;;;5.40;1.60;;;;;;;5.58;94.94;97059.22;4961333;28;20679;-81
2022/11/11 06:18:16;;;;;;;2.63;1.40;;;;;;;5.63;94.46;97055.44;4979960;28;20200;-82
2022/11/11 06:20:41;;;;;;;1.77;1.53;;;;;;;5.67;94.57;97069.03;4974522;28;20213;-81
2022/11/11 06:23:09;;;;;;;2.90;1.83;;;;;;;5.68;94.19;97068.13;4977105;28;20667;-82
2022/11/11 06:28:19;;;;;;;2.50;1.60;;;;;;;5.68;94.04;97068.94;4973727;28;20226;-81
2022/11/11 06:30:44;;;;;;;2.23;1.47;;;;;;;5.64;94.29;97069.16;4958726;28;20299;-81
2022/11/11 06:33:10;;;;;;;1.97;1.40;;;;;;;5.65;94.35;97076.84;4953039;28;20231;-86
2022/11/11 06:35:37;;;;;;;2.70;1.60;;;;;;;5.58;95.15;97067.75;4959174;28;20540;-82
2022/11/11 06:38:03;;;;;;;2.03;1.63;;;;;;;5.63;94.38;97085.53;4960861;28;20292;-82
2022/11/11 06:40:29;;;;;;;1.57;1.27;;;;;;;5.68;94.15;97074.09;4946072;28;20196;-82
2022/11/11 06:42:55;;;;;;;2.60;1.30;;;;;;;5.69;94.36;97080.09;4982063;28;20247;-82
2022/11/11 06:45:20;;;;;;;2.37;1.40;;;;;;;5.75;93.80;97072.03;4974639;28;20225;-82
2022/11/11 06:47:45;;;;;;;2.83;2.03;;;;;;;5.78;94.02;97074.44;4976930;28;20199;-80
2022/11/11 06:50:11;;;;;;;2.17;1.60;;;;;;;5.84;93.74;97078.47;4980982;28;20196;-81
2022/11/11 06:52:36;;;;;;;3.57;1.67;;;;;;;5.84;93.96;97084.44;4972518;28;20216;-81
2022/11/11 06:55:01;;;;;;;4.50;1.60;;;;;;;5.86;94.10;97074.88;4977061;28;20192;-81
2022/11/11 06:57:27;;;;;;;1.63;1.53;;;;;;;5.88;93.92;97074.78;4977726;28;20207;-81
2022/11/11 06:59:52;;;;;;;2.73;1.50;;;;;;;5.87;94.41;97078.28;4976626;28;20185;-81
2022/11/11 07:02:17;;;;;;;3.23;1.43;;;;;;;5.96;94.23;97076.06;4989156;28;20208;-80
2022/11/11 07:04:43;;;;;;;3.00;2.10;;;;;;;5.95;94.76;97082.16;4993032;28;20252;-80
2022/11/11 07:07:08;;;;;;;3.40;1.90;;;;;;;5.96;94.37;97077.81;4976890;28;20192;-81
2022/11/11 07:09:33;;;;;;;4.53;1.83;;;;;;;6.03;94.03;97084.31;4974850;28;20197;-81
2022/11/11 07:11:58;;;;;;;2.57;1.80;;;;;;;6.06;94.06;97085.91;4973928;28;20247;-80
2022/11/11 07:14:24;;;;;;;7.33;1.73;;;;;;;6.11;93.64;97087.31;4976962;28;20208;-80
2022/11/11 07:16:49;;;;;;;3.23;1.63;;;;;;;6.19;93.51;97089.50;4973162;28;20594;-81
2022/11/11 07:19:15;;;;;;;1.70;1.40;;;;;;;6.21;93.42;97090.25;4960378;28;20199;-80
2022/11/11 07:21:40;;;;;;;3.93;1.80;;;;;;;6.39;93.13;97089.22;4976547;28;20263;-80
2022/11/11 07:24:05;;;;;;;1.83;1.40;;;;;;;6.50;93.02;97092.03;4974559;28;20184;-80
2022/11/11 07:26:31;;;;;;;3.90;1.50;;;;;;;6.63;92.34;97093.97;4981993;28;20223;-80
2022/11/11 07:28:56;;;;;;;1.30;1.20;;;;;;;6.71;92.42;97091.75;4983394;28;21156;-82
2022/11/11 07:31:21;;;;;;;5.33;2.40;;;;;;;6.85;92.00;97094.41;4975055;28;20213;-84
2022/11/11 07:33:46;;;;;;;4.07;2.37;;;;;;;7.03;91.32;97101.09;4981838;28;20212;-83
2022/11/11 07:36:12;;;;;;;3.33;1.73;;;;;;;7.13;90.42;97090.25;4982110;28;20197;-82
2022/11/11 07:38:37;;;;;;;2.80;1.50;;;;;;;7.30;89.78;97090.09;4978065;28;20716;-82
2022/11/11 07:41:03;;;;;;;3.27;1.67;;;;;;;7.45;88.65;97088.38;4980843;28;20212;-81
2022/11/11 07:43:28;;;;;;;3.03;1.63;;;;;;;7.60;88.57;97092.63;4987338;28;20187;-81
2022/11/11 07:45:53;;;;;;;1.83;1.17;;;;;;;7.74;87.92;97084.03;4976459;28;20195;-82
2022/11/11 07:48:19;;;;;;;2.17;1.10;;;;;;;7.88;87.00;97084.03;4976628;28;20654;-81
2022/11/11 07:50:44;;;;;;;3.37;1.30;;;;;;;8.00;86.38;97087.63;4983511;28;20216;-83
2022/11/11 07:53:09;;;;;;;2.73;1.00;;;;;;;8.15;85.72;97089.28;4989667;28;20219;-84
2022/11/11 07:55:35;;;;;;;1.33;0.93;;;;;;;8.21;85.83;97084.53;4971077;28;20688;-83
2022/11/11 07:58:01;;;;;;;1.67;1.10;;;;;;;8.27;85.56;97083.31;4980063;28;20185;-85
2022/11/11 08:00:27;;;;;;;3.40;1.40;;;;;;;8.29;85.02;97088.41;4981252;28;20196;-83
2022/11/11 08:02:52;;;;;;;2.00;1.50;;;;;;;8.39;85.12;97092.09;4980606;28;20196;-82
2022/11/11 08:05:17;;;;;;;2.33;1.33;;;;;;;8.48;84.89;97091.50;4975510;28;20192;-83
2022/11/11 08:07:43;;;;;;;2.53;1.63;;;;;;;8.55;84.08;97086.78;4978211;28;20628;-83
2022/11/11 08:10:10;;;;;;;3.20;2.70;;;;;;;8.64;83.11;97086.19;4951307;28;20192;-83
2022/11/11 08:15:19;;;;;;;4.37;2.17;;;;;;;8.82;81.02;97092.78;4973721;28;20191;-83
2022/11/11 08:17:44;;;;;;;4.03;1.80;;;;;;;8.93;80.75;97098.13;4984054;28;20193;-83
2022/11/11 08:20:10;;;;;;;2.00;1.53;;;;;;;8.98;80.57;97100.41;4975750;28;20211;-83
2022/11/11 08:22:40;;;;;;;2.93;1.50;;;;;;;9.09;79.12;97103.94;4964420;28;20219;-84
2022/11/11 08:25:07;;;;;;;1.70;1.13;;;;;;;9.12;78.65;97099.50;4947761;28;20192;-83
2022/11/11 08:27:33;;;;;;;2.43;1.17;;;;;;;9.08;79.56;97102.28;4986606;28;20192;-83
2022/11/11 08:29:58;;;;;;;4.53;3.47;;;;;;;9.19;78.81;97099.00;4979143;28;20539;-83
2022/11/11 08:32:24;;;;;;;8.43;7.63;;;;;;;9.12;79.01;97089.97;4974199;28;20217;-83
2022/11/11 08:34:49;;;;;;;8.57;7.77;;;;;;;9.14;78.59;97092.47;4974870;28;20656;-83
2022/11/11 08:37:14;;;;;;;3.70;3.37;;;;;;;9.32;77.47;97094.66;4957923;28;20216;-83
2022/11/11 08:39:39;;;;;;;2.40;1.87;;;;;;;9.35;76.75;97084.06;4975224;28;20252;-83
2022/11/11 08:42:06;;;;;;;2.37;1.77;;;;;;;9.37;77.15;97086.59;4992810;28;20589;-84
2022/11/11 08:44:31;;;;;;;3.47;1.83;;;;;;;9.47;76.56;97086.81;4987384;28;21026;-82
2022/11/11 08:46:56;;;;;;;2.93;1.50;;;;;;;9.50;76.54;97082.22;4989041;28;20189;-83
2022/11/11 08:49:22;;;;;;;1.83;1.40;;;;;;;9.54;76.96;97088.88;4994713;28;20199;-82
2022/11/11 08:51:47;;;;;;;3.70;3.00;;;;;;;9.64;76.61;97089.09;4999471;28;20316;-82
2022/11/11 08:54:12;;;;;;;6.63;5.37;;;;;;;9.67;77.84;97096.66;4969260;28;20217;-81
2022/11/11 08:56:39;;;;;;;4.53;3.40;;;;;;;9.70;77.80;97093.84;4971386;28;20431;-83
2022/11/11 08:59:04;;;;;;;2.30;2.10;;;;;;;9.77;78.10;97086.47;4968273;28;20252;-82
2022/11/11 09:01:29;;;;;;;2.33;1.87;;;;;;;9.90;78.02;97095.09;4980634;28;20212;-83
2022/11/11 09:03:54;;;;;;;2.13;1.80;;;;;;;10.00;78.32;97092.69;4975370;28;20192;-83
2022/11/11 09:06:22;;;;;;;3.50;2.03;;;;;;;10.08;78.64;97103.38;4978615;28;20189;-82
2022/11/11 09:08:48;;;;;;;11.80;9.70;;;;;;;9.93;78.98;97092.28;4958083;28;20195;-82
2022/11/11 09:11:13;;;;;;;6.73;4.40;;;;;;;9.72;79.04;97104.97;4962316;28;20200;-81
2022/11/11 09:13:39;;;;;;;3.93;3.50;;;;;;;9.92;79.24;97094.03;4958949;28;20220;-82
2022/11/11 09:16:05;;;;;;;4.30;2.97;;;;;;;10.09;79.27;97102.44;4981652;28;20192;-82
2022/11/11 09:18:30;;;;;;;3.30;2.40;;;;;;;10.20;79.15;97102.50;4979702;28;20193;-82
2022/11/11 09:20:59;;;;;;;3.70;2.57;;;;;;;10.32;79.74;97099.06;4975239;28;20216;-83
2022/11/11 09:23:24;;;;;;;11.03;7.50;;;;;;;10.51;79.46;97101.19;4978372;28;20203;-82
2022/11/11 09:25:50;;;;;;;28.33;20.67;;;;;;;10.46;78.93;97098.94;4965418;28;20657;-83
2022/11/11 09:28:15;;;;;;;18.87;12.87;;;;;;;10.30;78.58;97097.53;4976024;28;20216;-81
2022/11/11 09:30:40;;;;;;;6.97;4.77;;;;;;;10.60;76.86;97100.56;4973306;28;20223;-82
2022/11/11 09:33:06;;;;;;;6.67;5.20;;;;;;;10.76;75.99;97101.09;4967226;28;20209;-83
2022/11/11 09:35:31;;;;;;;3.87;2.60;;;;;;;10.85;75.84;97104.78;4958264;28;20691;-84
2022/11/11 09:37:58;;;;;;;5.53;2.40;;;;;;;10.99;75.08;97109.81;4974368;28;20204;-83
2022/11/11 09:40:26;;;;;;;3.93;2.33;;;;;;;11.00;73.86;97108.06;4970508;28;20185;-83
2022/11/11 09:43:04;;;;;;;2.63;2.10;;;;;;;11.20;73.71;97101.38;4964531;28;20174;-83
2022/11/11 09:45:38;;;;;;;5.40;3.40;;;;;;;11.38;72.06;97101.78;4975246;28;20193;-83
2022/11/11 09:48:36;;;;;;;5.83;2.33;;;;;;;11.57;70.68;97096.84;4985941;28;20188;-84
2022/11/11 09:51:02;;;;;;;3.73;1.80;;;;;;;11.79;69.41;97104.69;4966662;28;20205;-84
2022/11/11 09:53:36;;;;;;;2.10;1.90;;;;;;;11.87;70.11;97098.94;4963566;28;20223;-84
2022/11/11 09:56:06;;;;;;;6.70;2.17;;;;;;;12.05;69.46;97096.69;4974337;28;20704;-82
2022/11/11 09:58:39;;;;;;;2.53;2.00;;;;;;;12.11;69.63;97094.44;4963208;28;20198;-82
2022/11/11 10:01:09;;;;;;;1.80;1.53;;;;;;;12.17;69.59;97093.94;4981940;28;20181;-82
2022/11/11 10:03:39;;;;;;;13.30;2.37;;;;;;;12.22;70.32;97093.59;4997492;28;20258;-84
2022/11/11 10:06:26;;;;;;;5.97;1.93;;;;;;;12.38;69.74;97093.25;4979270;28;20188;-85
2022/11/11 10:09:01;;;;;;;8.40;1.93;;;;;;;12.52;68.00;97087.75;4967516;28;20570;-82
2022/11/11 10:11:55;;;;;;;3.47;1.27;;;;;;;12.57;65.98;97088.22;4982193;28;20323;-83
2022/11/11 10:14:20;;;;;;;4.77;1.90;;;;;;;12.60;66.30;97090.56;4962050;28;20220;-84
2022/11/11 10:17:10;;;;;;;3.10;1.27;;;;;;;12.55;66.39;97087.53;4984550;28;20193;-82
2022/11/11 10:20:01;;;;;;;2.53;1.40;;;;;;;12.75;65.75;97091.97;4975440;28;20726;-84
2022/11/11 10:22:30;;;;;;;5.07;1.57;;;;;;;12.71;66.85;97087.09;4980754;28;20228;-84
2022/11/11 10:25:11;;;;;;;3.97;2.03;;;;;;;13.00;67.10;97082.16;4982864;28;20192;-84
2022/11/11 10:27:39;;;;;;;22.17;3.87;;;;;;;13.05;67.68;97087.81;4963668;28;20556;-83
2022/11/11 10:30:15;;;;;;;4.63;2.03;;;;;;;13.06;67.24;97094.66;4975552;28;20676;-83
2022/11/11 10:32:41;;;;;;;2.10;1.90;;;;;;;13.07;65.92;97091.09;4965417;28;20235;-83
2022/11/11 10:35:18;;;;;;;2.53;1.80;;;;;;;13.08;66.18;97098.00;4986073;28;20176;-84
2022/11/11 10:37:43;;;;;;;2.30;2.10;;;;;;;13.08;66.67;97105.00;4957971;28;20203;-83
2022/11/11 10:40:12;;;;;;;5.00;4.50;;;;;;;13.01;67.64;97107.28;4962935;28;20188;-84
2022/11/11 10:42:37;;;;;;;5.43;3.97;;;;;;;12.80;69.50;97104.59;4981470;28;20209;-84
2022/11/11 10:45:09;;;;;;;6.33;4.87;;;;;;;12.64;70.41;97097.22;4979073;28;20199;-83
2022/11/11 10:47:43;;;;;;;9.03;3.50;;;;;;;12.71;70.11;97105.34;4975461;28;20269;-83
2022/11/11 10:50:25;;;;;;;6.13;3.77;;;;;;;12.54;71.00;97101.47;4957820;28;20823;-84
2022/11/11 10:53:02;;;;;;;4.00;2.77;;;;;;;12.60;70.76;97107.97;4970687;28;20224;-82
2022/11/11 10:55:52;;;;;;;4.70;2.13;;;;;;;12.30;71.70;97096.44;4974612;28;20192;-83
2022/11/11 10:58:28;;;;;;;5.43;3.13;;;;;;;12.48;71.20;97097.59;4978922;28;20184;-84
2022/11/11 11:00:55;;;;;;;4.53;2.17;;;;;;;12.51;68.43;97100.91;4962235;28;20232;-84
2022/11/11 11:03:29;;;;;;;3.17;2.03;;;;;;;12.35;69.08;97102.09;4974058;28;20185;-82
2022/11/11 11:06:05;;;;;;;2.00;1.80;;;;;;;12.66;67.29;97097.09;4966944;28;20187;-82
2022/11/11 11:08:37;;;;;;;2.80;1.77;;;;;;;12.31;66.56;97102.47;4977304;28;20724;-83
2022/11/11 11:11:12;;;;;;;5.70;1.50;;;;;;;12.50;64.78;97097.47;4978885;28;20208;-82
2022/11/11 11:13:48;;;;;;;1.60;1.47;;;;;;;12.40;62.56;97092.16;4979602;28;20199;-84
2022/11/11 11:16:23;;;;;;;7.00;1.50;;;;;;;12.63;61.92;97087.75;4959901;28;20192;-82
2022/11/11 11:19:19;;;;;;;6.07;1.50;;;;;;;12.54;61.01;97085.00;4959931;28;20241;-84
2022/11/11 11:21:55;;;;;;;2.57;1.50;;;;;;;12.52;62.52;97085.13;4976500;28;20227;-84
2022/11/11 11:24:24;;;;;;;2.20;1.03;;;;;;;12.65;60.58;97082.41;4961705;28;20255;-84
2022/11/11 11:26:55;;;;;;;2.10;1.33;;;;;;;12.71;62.50;97087.91;4985366;28;20189;-83
2022/11/11 11:29:28;;;;;;;3.63;1.50;;;;;;;12.75;63.80;97086.75;4962144;28;20185;-84
2022/11/11 11:31:53;;;;;;;3.10;2.67;;;;;;;12.81;63.75;97079.34;4971671;28;20283;-84
2022/11/11 11:34:19;;;;;;;3.73;2.17;;;;;;;12.67;64.65;97088.31;4967436;28;20220;-84
2022/11/11 11:36:58;;;;;;;3.73;1.70;;;;;;;12.72;64.55;97079.19;4978836;28;20200;-84
2022/11/11 11:39:34;;;;;;;2.77;1.30;;;;;;;12.71;64.73;97090.53;4978310;28;20195;-83
2022/11/11 11:41:59;;;;;;;4.60;1.53;;;;;;;12.55;67.34;97082.31;4991802;28;20213;-83
2022/11/11 11:44:29;;;;;;;1.67;1.30;;;;;;;12.62;67.00;97080.84;4977943;28;20185;-84
2022/11/11 11:47:20;;;;;;;2.17;1.43;;;;;;;12.63;66.99;97081.66;4956747;28;20195;-85
2022/11/11 11:49:54;;;;;;;3.20;1.70;;;;;;;12.55;66.70;97084.91;4987030;28;20283;-82
2022/11/11 11:52:27;;;;;;;3.10;1.73;;;;;;;12.70;65.52;97077.63;4990801;28;20572;-83
2022/11/11 11:54:59;;;;;;;2.97;2.00;;;;;;;12.76;65.87;97077.13;4976834;28;20259;-84
2022/11/11 11:57:36;;;;;;;2.97;1.77;;;;;;;12.72;66.89;97083.53;4959402;28;20204;-85
2022/11/11 12:00:05;;;;;;;3.10;1.93;;;;;;;12.80;67.41;97078.53;4983627;28;20780;-84
2022/11/11 12:03:01;;;;;;;5.47;1.87;;;;;;;12.76;67.52;97066.72;4966488;28;20263;-83
2022/11/11 12:05:38;;;;;;;3.17;2.00;;;;;;;12.76;68.91;97072.75;4988303;28;20192;-84
2022/11/11 12:08:43;;;;;;;2.07;1.70;;;;;;;12.76;70.43;97064.09;4958833;28;20308;-81
2022/11/11 12:11:17;;;;;;;3.03;1.90;;;;;;;12.80;69.95;97065.50;4961506;28;20244;-84
2022/11/11 12:14:16;;;;;;;2.67;2.37;;;;;;;12.93;70.73;97060.97;4979550;28;20212;-84
2022/11/11 12:17:08;;;;;;;4.40;1.80;;;;;;;12.96;72.11;97065.91;4973527;28;20188;-83
2022/11/11 12:19:42;;;;;;;2.23;2.00;;;;;;;13.14;72.56;97075.78;4973516;28;20196;-82
2022/11/11 12:22:19;;;;;;;2.63;2.10;;;;;;;13.15;72.53;97072.22;4959628;28;20269;-84
2022/11/11 12:24:54;;;;;;;2.90;2.10;;;;;;;13.25;71.95;97068.78;4984093;28;20219;-86
2022/11/11 12:27:38;;;;;;;2.73;2.03;;;;;;;13.31;72.52;97068.25;4969699;28;20287;-85
2022/11/11 12:30:09;;;;;;;4.83;2.07;;;;;;;13.38;72.22;97070.38;4960337;28;20239;-82
2022/11/11 12:32:53;;;;;;;4.27;1.90;;;;;;;13.45;72.44;97064.50;4985201;28;20227;-83
2022/11/11 12:35:52;;;;;;;4.87;2.00;;;;;;;13.56;71.88;97061.81;4976746;28;20234;-82
2022/11/11 12:38:26;;;;;;;2.23;2.07;;;;;;;13.59;72.15;97061.56;4985051;28;20304;-84
2022/11/11 12:41:02;;;;;;;3.40;2.20;;;;;;;13.70;71.82;97052.84;4981069;28;20218;-84
2022/11/11 12:43:34;;;;;;;2.77;2.10;;;;;;;13.79;72.08;97054.66;4980641;28;20185;-83
2022/11/11 12:46:18;;;;;;;3.77;2.57;;;;;;;13.84;71.98;97065.53;4974222;28;20273;-83
2022/11/11 12:49:19;;;;;;;3.97;2.53;;;;;;;13.55;71.84;97069.78;4968740;28;20200;-84
2022/11/11 12:52:03;;;;;;;4.00;2.90;;;;;;;13.60;71.36;97073.69;4917251;29;20583;-81
2022/11/11 12:55:13;;;;;;;3.70;2.70;;;;;;;13.53;71.72;97063.88;4966948;28;20319;-81
2022/11/11 12:57:50;;;;;;;3.90;3.13;;;;;;;13.50;72.27;97070.16;4973400;28;20279;-83
2022/11/11 13:00:20;;;;;;;5.60;2.63;;;;;;;13.39;73.16;97064.19;4957631;28;20288;-83
2022/11/11 13:03:17;;;;;;;3.83;3.23;;;;;;;13.43;73.53;97070.78;4975145;28;20206;-84
2022/11/11 13:05:47;;;;;;;4.37;2.90;;;;;;;13.45;73.34;97071.53;4986792;28;20204;-84